sensor_id;sensor_type;location;lat;lon;timestamp;temperature;humidity
4451;DHT22;2238;50.180;9.230;2022-07-22T00:02:51;19.80;99.90
4451;DHT22;2238;50.180;9.230;2022-07-22T00:11:54;19.90;99.90
4451;DHT22;2238;50.180;9.230;2022-07-22T00:14:55;19.90;99.90
4451;DHT22;2238;50.180;9.230;2022-07-22T00:17:56;20.00;99.90
4451;DHT22;2238;50.180;9.230;2022-07-22T00:23:57;19.90;99.90
4451;DHT22;2238;50.180;9.230;2022-07-22T00:26:58;19.70;99.90
4451;DHT22;2238;50.180;9.230;2022-07-22T00:39:02;18.50;99.90
4451;DHT22;2238;50.180;9.230;2022-07-22T00:42:03;18.70;99.90
4451;DHT22;2238;50.180;9.230;2022-07-22T00:54:08;19.30;99.90
4451;DHT22;2238;50.180;9.230;2022-07-22T00:57:09;19.30;99.90
4451;DHT22;2238;50.180;9.230;2022-07-22T01:00:13;19.20;99.90
4451;DHT22;2238;50.180;9.230;2022-07-22T01:39:29;17.50;99.90
4451;DHT22;2238;50.180;9.230;2022-07-22T01:42:30;17.50;99.90
4451;DHT22;2238;50.180;9.230;2022-07-22T01:45:31;17.30;99.90
4451;DHT22;2238;50.180;9.230;2022-07-22T01:51:33;17.00;99.90
4451;DHT22;2238;50.180;9.230;2022-07-22T01:57:36;17.30;99.90
4451;DHT22;2238;50.180;9.230;2022-07-22T02:00:38;17.50;99.90
4451;DHT22;2238;50.180;9.230;2022-07-22T02:06:40;18.00;99.90
4451;DHT22;2238;50.180;9.230;2022-07-22T02:12:42;17.50;99.90
4451;DHT22;2238;50.180;9.230;2022-07-22T02:15:43;17.40;99.90
4451;DHT22;2238;50.180;9.230;2022-07-22T02:18:43;17.30;99.90
4451;DHT22;2238;50.180;9.230;2022-07-22T02:27:46;17.60;99.90
4451;DHT22;2238;50.180;9.230;2022-07-22T02:30:47;17.10;99.90
4451;DHT22;2238;50.180;9.230;2022-07-22T02:33:48;17.20;99.90
4451;DHT22;2238;50.180;9.230;2022-07-22T02:36:48;17.80;99.90
4451;DHT22;2238;50.180;9.230;2022-07-22T02:39:49;17.80;99.90
4451;DHT22;2238;50.180;9.230;2022-07-22T02:45:51;17.40;99.90
4451;DHT22;2238;50.180;9.230;2022-07-22T02:48:51;17.50;99.90
4451;DHT22;2238;50.180;9.230;2022-07-22T02:51:52;17.50;99.90
4451;DHT22;2238;50.180;9.230;2022-07-22T02:54:52;17.70;99.90
4451;DHT22;2238;50.180;9.230;2022-07-22T03:03:55;17.70;99.90
4451;DHT22;2238;50.180;9.230;2022-07-22T03:09:58;18.00;99.90
4451;DHT22;2238;50.180;9.230;2022-07-22T03:12:58;18.60;99.90
4451;DHT22;2238;50.180;9.230;2022-07-22T03:15:59;18.80;99.90
4451;DHT22;2238;50.180;9.230;2022-07-22T03:19:00;18.90;99.90
4451;DHT22;2238;50.180;9.230;2022-07-22T03:25:02;18.80;99.90
4451;DHT22;2238;50.180;9.230;2022-07-22T03:28:03;18.60;99.90
4451;DHT22;2238;50.180;9.230;2022-07-22T03:31:05;18.90;99.90
4451;DHT22;2238;50.180;9.230;2022-07-22T03:34:05;18.90;99.90
4451;DHT22;2238;50.180;9.230;2022-07-22T03:37:06;19.00;99.90
4451;DHT22;2238;50.180;9.230;2022-07-22T03:40:07;18.80;99.90
4451;DHT22;2238;50.180;9.230;2022-07-22T03:55:13;19.00;99.90
4451;DHT22;2238;50.180;9.230;2022-07-22T04:01:15;19.10;99.90
4451;DHT22;2238;50.180;9.230;2022-07-22T04:04:15;19.10;99.90
4451;DHT22;2238;50.180;9.230;2022-07-22T04:10:17;18.70;99.90
4451;DHT22;2238;50.180;9.230;2022-07-22T04:13:17;19.00;99.90
4451;DHT22;2238;50.180;9.230;2022-07-22T04:16:18;19.10;99.90
4451;DHT22;2238;50.180;9.230;2022-07-22T04:22:20;19.20;99.90
4451;DHT22;2238;50.180;9.230;2022-07-22T04:25:20;19.30;99.90
4451;DHT22;2238;50.180;9.230;2022-07-22T04:28:21;19.20;99.90
4451;DHT22;2238;50.180;9.230;2022-07-22T04:31:22;19.10;99.90
4451;DHT22;2238;50.180;9.230;2022-07-22T04:34:23;19.00;99.90
4451;DHT22;2238;50.180;9.230;2022-07-22T04:37:23;18.70;99.90
4451;DHT22;2238;50.180;9.230;2022-07-22T04:40:24;18.80;99.90
4451;DHT22;2238;50.180;9.230;2022-07-22T04:43:25;19.00;99.90
4451;DHT22;2238;50.180;9.230;2022-07-22T04:46:25;18.90;99.90
4451;DHT22;2238;50.180;9.230;2022-07-22T04:49:26;18.50;99.90
4451;DHT22;2238;50.180;9.230;2022-07-22T04:55:28;18.60;99.90
4451;DHT22;2238;50.180;9.230;2022-07-22T04:58:28;18.50;99.90
4451;DHT22;2238;50.180;9.230;2022-07-22T05:01:29;18.70;99.90
4451;DHT22;2238;50.180;9.230;2022-07-22T05:07:31;18.70;99.90
4451;DHT22;2238;50.180;9.230;2022-07-22T05:10:31;18.90;99.90
4451;DHT22;2238;50.180;9.230;2022-07-22T05:13:33;19.10;99.90
4451;DHT22;2238;50.180;9.230;2022-07-22T05:16:36;18.90;99.90
4451;DHT22;2238;50.180;9.230;2022-07-22T05:19:38;19.10;99.90
4451;DHT22;2238;50.180;9.230;2022-07-22T05:28:42;18.90;99.90
4451;DHT22;2238;50.180;9.230;2022-07-22T05:31:42;19.10;99.90
4451;DHT22;2238;50.180;9.230;2022-07-22T05:34:43;19.10;99.90
4451;DHT22;2238;50.180;9.230;2022-07-22T05:37:44;19.10;99.90
4451;DHT22;2238;50.180;9.230;2022-07-22T05:43:46;19.20;99.90
4451;DHT22;2238;50.180;9.230;2022-07-22T05:46:47;19.20;99.90
4451;DHT22;2238;50.180;9.230;2022-07-22T05:49:47;19.30;99.90
4451;DHT22;2238;50.180;9.230;2022-07-22T05:58:50;19.10;99.90
4451;DHT22;2238;50.180;9.230;2022-07-22T06:01:51;19.30;99.90
4451;DHT22;2238;50.180;9.230;2022-07-22T06:07:55;19.30;99.90
4451;DHT22;2238;50.180;9.230;2022-07-22T06:10:59;19.40;99.90
4451;DHT22;2238;50.180;9.230;2022-07-22T06:13:59;19.40;99.90
4451;DHT22;2238;50.180;9.230;2022-07-22T06:17:00;19.40;99.90
4451;DHT22;2238;50.180;9.230;2022-07-22T06:20:01;19.50;99.90
4451;DHT22;2238;50.180;9.230;2022-07-22T06:26:03;19.40;99.90
4451;DHT22;2238;50.180;9.230;2022-07-22T06:29:04;19.70;99.90
4451;DHT22;2238;50.180;9.230;2022-07-22T06:32:05;19.90;99.90
4451;DHT22;2238;50.180;9.230;2022-07-22T06:35:06;19.90;99.90
4451;DHT22;2238;50.180;9.230;2022-07-22T06:47:10;19.60;99.90
4451;DHT22;2238;50.180;9.230;2022-07-22T06:50:10;19.80;99.90
4451;DHT22;2238;50.180;9.230;2022-07-22T06:56:13;19.70;99.90
4451;DHT22;2238;50.180;9.230;2022-07-22T06:59:14;19.90;99.90
4451;DHT22;2238;50.180;9.230;2022-07-22T07:08:17;19.90;99.90
4451;DHT22;2238;50.180;9.230;2022-07-22T07:11:18;19.80;99.90
4451;DHT22;2238;50.180;9.230;2022-07-22T07:14:19;19.90;99.90
4451;DHT22;2238;50.180;9.230;2022-07-22T07:17:19;20.00;99.90
4451;DHT22;2238;50.180;9.230;2022-07-22T07:20:20;19.90;99.90
4451;DHT22;2238;50.180;9.230;2022-07-22T07:23:21;20.20;99.90
4451;DHT22;2238;50.180;9.230;2022-07-22T07:32:24;20.20;99.90
4451;DHT22;2238;50.180;9.230;2022-07-22T07:35:26;20.30;99.90
4451;DHT22;2238;50.180;9.230;2022-07-22T07:41:29;21.30;99.90
4451;DHT22;2238;50.180;9.230;2022-07-22T07:44:30;21.10;99.90
4451;DHT22;2238;50.180;9.230;2022-07-22T07:47:31;21.00;99.90
4451;DHT22;2238;50.180;9.230;2022-07-22T07:53:33;21.00;99.90
4451;DHT22;2238;50.180;9.230;2022-07-22T08:02:36;20.90;99.90
4451;DHT22;2238;50.180;9.230;2022-07-22T08:05:37;21.40;99.90
4451;DHT22;2238;50.180;9.230;2022-07-22T08:08:39;21.50;99.90
4451;DHT22;2238;50.180;9.230;2022-07-22T08:11:40;21.60;99.90
4451;DHT22;2238;50.180;9.230;2022-07-22T08:14:40;22.20;99.90
4451;DHT22;2238;50.180;9.230;2022-07-22T08:17:41;22.30;99.90
4451;DHT22;2238;50.180;9.230;2022-07-22T08:23:43;23.00;99.90
4451;DHT22;2238;50.180;9.230;2022-07-22T08:29:44;23.60;99.90
4451;DHT22;2238;50.180;9.230;2022-07-22T08:32:46;23.60;99.90
4451;DHT22;2238;50.180;9.230;2022-07-22T08:35:48;23.60;99.90
4451;DHT22;2238;50.180;9.230;2022-07-22T08:38:48;23.60;99.90
4451;DHT22;2238;50.180;9.230;2022-07-22T08:41:49;23.40;99.90
4451;DHT22;2238;50.180;9.230;2022-07-22T08:44:50;23.00;99.90
4451;DHT22;2238;50.180;9.230;2022-07-22T08:47:52;23.20;99.90
4451;DHT22;2238;50.180;9.230;2022-07-22T08:50:52;22.70;99.90
4451;DHT22;2238;50.180;9.230;2022-07-22T08:53:54;22.70;99.90
4451;DHT22;2238;50.180;9.230;2022-07-22T08:56:55;23.60;99.90
4451;DHT22;2238;50.180;9.230;2022-07-22T08:59:59;23.60;99.90
4451;DHT22;2238;50.180;9.230;2022-07-22T09:06:01;24.30;99.90
4451;DHT22;2238;50.180;9.230;2022-07-22T09:09:04;24.80;99.90
4451;DHT22;2238;50.180;9.230;2022-07-22T09:12:06;24.20;99.90
4451;DHT22;2238;50.180;9.230;2022-07-22T09:15:08;24.20;99.90
4451;DHT22;2238;50.180;9.230;2022-07-22T09:18:08;24.00;99.90
4451;DHT22;2238;50.180;9.230;2022-07-22T09:21:11;23.70;99.90
4451;DHT22;2238;50.180;9.230;2022-07-22T09:24:31;23.80;99.90
4451;DHT22;2238;50.180;9.230;2022-07-22T09:27:31;24.20;99.90
4451;DHT22;2238;50.180;9.230;2022-07-22T09:30:39;24.30;99.90
4451;DHT22;2238;50.180;9.230;2022-07-22T09:33:40;25.10;99.90
4451;DHT22;2238;50.180;9.230;2022-07-22T09:36:58;25.20;99.90
4451;DHT22;2238;50.180;9.230;2022-07-22T09:40:13;24.70;99.90
4451;DHT22;2238;50.180;9.230;2022-07-22T09:43:16;24.90;99.90
4451;DHT22;2238;50.180;9.230;2022-07-22T09:46:34;24.80;99.90
4451;DHT22;2238;50.180;9.230;2022-07-22T09:49:37;24.80;99.90
4451;DHT22;2238;50.180;9.230;2022-07-22T09:52:41;24.90;99.90
4451;DHT22;2238;50.180;9.230;2022-07-22T09:55:42;25.40;99.90
4451;DHT22;2238;50.180;9.230;2022-07-22T09:58:43;25.00;99.90
4451;DHT22;2238;50.180;9.230;2022-07-22T10:01:44;25.00;99.90
4451;DHT22;2238;50.180;9.230;2022-07-22T10:04:46;25.30;99.90
4451;DHT22;2238;50.180;9.230;2022-07-22T10:07:48;25.40;99.90
4451;DHT22;2238;50.180;9.230;2022-07-22T10:10:49;25.80;99.90
4451;DHT22;2238;50.180;9.230;2022-07-22T10:13:51;25.80;99.90
4451;DHT22;2238;50.180;9.230;2022-07-22T10:35:21;25.70;99.90
4451;DHT22;2238;50.180;9.230;2022-07-22T10:38:24;26.20;99.90
4451;DHT22;2238;50.180;9.230;2022-07-22T10:41:42;25.90;99.90
4451;DHT22;2238;50.180;9.230;2022-07-22T10:44:46;26.10;99.90
4451;DHT22;2238;50.180;9.230;2022-07-22T10:51:22;26.80;99.90
4451;DHT22;2238;50.180;9.230;2022-07-22T10:54:24;27.00;99.90
4451;DHT22;2238;50.180;9.230;2022-07-22T10:57:32;26.90;99.90
4451;DHT22;2238;50.180;9.230;2022-07-22T11:00:32;26.80;99.90
4451;DHT22;2238;50.180;9.230;2022-07-22T11:03:35;27.20;99.90
4451;DHT22;2238;50.180;9.230;2022-07-22T11:06:36;27.40;99.90
4451;DHT22;2238;50.180;9.230;2022-07-22T11:09:36;27.40;99.90
4451;DHT22;2238;50.180;9.230;2022-07-22T11:12:37;27.60;99.90
4451;DHT22;2238;50.180;9.230;2022-07-22T11:15:38;27.10;99.90
4451;DHT22;2238;50.180;9.230;2022-07-22T11:22:05;27.50;99.90
4451;DHT22;2238;50.180;9.230;2022-07-22T11:25:09;27.20;99.90
4451;DHT22;2238;50.180;9.230;2022-07-22T11:28:11;27.10;99.90
4451;DHT22;2238;50.180;9.230;2022-07-22T11:31:17;27.60;99.90
4451;DHT22;2238;50.180;9.230;2022-07-22T11:34:18;27.80;99.90
4451;DHT22;2238;50.180;9.230;2022-07-22T11:37:23;27.80;99.90
4451;DHT22;2238;50.180;9.230;2022-07-22T11:40:31;27.60;99.90
4451;DHT22;2238;50.180;9.230;2022-07-22T11:43:44;28.10;99.90
4451;DHT22;2238;50.180;9.230;2022-07-22T11:46:45;27.70;99.90
4451;DHT22;2238;50.180;9.230;2022-07-22T11:49:46;27.80;99.90
4451;DHT22;2238;50.180;9.230;2022-07-22T11:52:56;28.30;99.90
4451;DHT22;2238;50.180;9.230;2022-07-22T11:55:59;28.30;99.90
4451;DHT22;2238;50.180;9.230;2022-07-22T11:59:00;28.70;99.90
4451;DHT22;2238;50.180;9.230;2022-07-22T12:02:07;28.20;99.90
4451;DHT22;2238;50.180;9.230;2022-07-22T12:05:10;28.10;99.90
4451;DHT22;2238;50.180;9.230;2022-07-22T12:08:13;28.50;99.90
4451;DHT22;2238;50.180;9.230;2022-07-22T12:11:15;28.30;99.90
4451;DHT22;2238;50.180;9.230;2022-07-22T12:14:28;28.30;99.90
4451;DHT22;2238;50.180;9.230;2022-07-22T12:17:29;28.40;99.90
4451;DHT22;2238;50.180;9.230;2022-07-22T12:20:29;27.90;99.90
4451;DHT22;2238;50.180;9.230;2022-07-22T12:23:30;27.70;99.90
4451;DHT22;2238;50.180;9.230;2022-07-22T12:26:45;28.20;99.90
4451;DHT22;2238;50.180;9.230;2022-07-22T12:29:48;28.20;99.90
4451;DHT22;2238;50.180;9.230;2022-07-22T12:32:49;28.70;99.90
4451;DHT22;2238;50.180;9.230;2022-07-22T12:36:05;29.00;99.90
4451;DHT22;2238;50.180;9.230;2022-07-22T12:39:14;28.20;99.90
4451;DHT22;2238;50.180;9.230;2022-07-22T12:42:16;28.00;99.90
4451;DHT22;2238;50.180;9.230;2022-07-22T12:45:19;28.00;99.90
4451;DHT22;2238;50.180;9.230;2022-07-22T12:48:27;28.80;99.90
4451;DHT22;2238;50.180;9.230;2022-07-22T12:51:28;28.30;99.90
4451;DHT22;2238;50.180;9.230;2022-07-22T12:54:29;28.20;99.90
4451;DHT22;2238;50.180;9.230;2022-07-22T13:00:34;28.00;99.90
4451;DHT22;2238;50.180;9.230;2022-07-22T13:06:36;28.50;99.90
4451;DHT22;2238;50.180;9.230;2022-07-22T13:09:37;28.40;99.90
4451;DHT22;2238;50.180;9.230;2022-07-22T13:12:38;28.20;99.90
4451;DHT22;2238;50.180;9.230;2022-07-22T13:15:39;28.40;99.90
4451;DHT22;2238;50.180;9.230;2022-07-22T13:18:39;28.90;99.90
4451;DHT22;2238;50.180;9.230;2022-07-22T13:21:40;28.90;99.90
4451;DHT22;2238;50.180;9.230;2022-07-22T13:24:41;29.00;99.90
4451;DHT22;2238;50.180;9.230;2022-07-22T13:27:41;29.00;99.90
4451;DHT22;2238;50.180;9.230;2022-07-22T13:30:42;29.10;99.90
4451;DHT22;2238;50.180;9.230;2022-07-22T13:33:42;28.80;99.90
4451;DHT22;2238;50.180;9.230;2022-07-22T13:36:43;28.80;99.90
4451;DHT22;2238;50.180;9.230;2022-07-22T13:42:47;29.00;99.90
4451;DHT22;2238;50.180;9.230;2022-07-22T13:45:47;28.70;99.90
4451;DHT22;2238;50.180;9.230;2022-07-22T13:48:48;28.80;99.90
4451;DHT22;2238;50.180;9.230;2022-07-22T13:51:49;28.90;99.90
4451;DHT22;2238;50.180;9.230;2022-07-22T13:54:51;28.70;99.90
4451;DHT22;2238;50.180;9.230;2022-07-22T13:57:52;28.70;99.90
4451;DHT22;2238;50.180;9.230;2022-07-22T14:00:53;28.40;99.90
4451;DHT22;2238;50.180;9.230;2022-07-22T14:09:56;28.10;99.90
4451;DHT22;2238;50.180;9.230;2022-07-22T14:12:56;28.20;99.90
4451;DHT22;2238;50.180;9.230;2022-07-22T14:15:57;28.20;99.90
4451;DHT22;2238;50.180;9.230;2022-07-22T14:19:18;28.80;99.90
4451;DHT22;2238;50.180;9.230;2022-07-22T14:22:19;28.60;99.90
4451;DHT22;2238;50.180;9.230;2022-07-22T14:25:19;28.40;99.90
4451;DHT22;2238;50.180;9.230;2022-07-22T14:28:21;28.20;99.90
4451;DHT22;2238;50.180;9.230;2022-07-22T14:31:21;28.20;99.90
4451;DHT22;2238;50.180;9.230;2022-07-22T14:34:22;28.70;99.90
4451;DHT22;2238;50.180;9.230;2022-07-22T14:37:22;28.50;99.90
4451;DHT22;2238;50.180;9.230;2022-07-22T14:40:24;28.50;99.90
4451;DHT22;2238;50.180;9.230;2022-07-22T14:43:24;28.50;99.90
4451;DHT22;2238;50.180;9.230;2022-07-22T14:46:25;28.50;99.90
4451;DHT22;2238;50.180;9.230;2022-07-22T14:49:25;28.60;99.90
4451;DHT22;2238;50.180;9.230;2022-07-22T14:52:26;28.60;99.90
4451;DHT22;2238;50.180;9.230;2022-07-22T14:55:27;28.60;99.90
4451;DHT22;2238;50.180;9.230;2022-07-22T14:58:27;29.00;99.90
4451;DHT22;2238;50.180;9.230;2022-07-22T15:01:28;28.90;99.90
4451;DHT22;2238;50.180;9.230;2022-07-22T15:04:29;28.70;99.90
4451;DHT22;2238;50.180;9.230;2022-07-22T15:07:30;28.90;99.90
4451;DHT22;2238;50.180;9.230;2022-07-22T15:10:32;28.90;99.90
4451;DHT22;2238;50.180;9.230;2022-07-22T15:13:32;28.80;99.90
4451;DHT22;2238;50.180;9.230;2022-07-22T15:16:33;29.00;99.90
4451;DHT22;2238;50.180;9.230;2022-07-22T15:19:34;28.70;99.90
4451;DHT22;2238;50.180;9.230;2022-07-22T15:22:34;28.70;99.90
4451;DHT22;2238;50.180;9.230;2022-07-22T15:25:35;28.70;99.90
4451;DHT22;2238;50.180;9.230;2022-07-22T15:28:37;29.10;99.90
4451;DHT22;2238;50.180;9.230;2022-07-22T15:31:39;28.80;99.90
4451;DHT22;2238;50.180;9.230;2022-07-22T15:34:40;29.00;99.90
4451;DHT22;2238;50.180;9.230;2022-07-22T15:37:41;28.80;99.90
4451;DHT22;2238;50.180;9.230;2022-07-22T15:40:41;28.70;99.90
4451;DHT22;2238;50.180;9.230;2022-07-22T15:43:42;28.80;99.90
4451;DHT22;2238;50.180;9.230;2022-07-22T15:46:43;28.90;99.90
4451;DHT22;2238;50.180;9.230;2022-07-22T15:49:44;29.00;99.90
4451;DHT22;2238;50.180;9.230;2022-07-22T15:52:45;28.90;99.90
4451;DHT22;2238;50.180;9.230;2022-07-22T15:55:45;28.90;99.90
4451;DHT22;2238;50.180;9.230;2022-07-22T15:58:46;28.80;99.90
4451;DHT22;2238;50.180;9.230;2022-07-22T16:02:05;28.90;99.90
4451;DHT22;2238;50.180;9.230;2022-07-22T16:05:06;28.70;99.90
4451;DHT22;2238;50.180;9.230;2022-07-22T16:08:07;28.90;99.90
4451;DHT22;2238;50.180;9.230;2022-07-22T16:11:08;28.60;99.90
4451;DHT22;2238;50.180;9.230;2022-07-22T16:14:08;28.70;99.90
4451;DHT22;2238;50.180;9.230;2022-07-22T16:17:09;28.80;99.90
4451;DHT22;2238;50.180;9.230;2022-07-22T16:20:10;29.10;99.90
4451;DHT22;2238;50.180;9.230;2022-07-22T16:23:11;28.90;99.90
4451;DHT22;2238;50.180;9.230;2022-07-22T16:26:12;29.00;99.90
4451;DHT22;2238;50.180;9.230;2022-07-22T16:29:12;28.60;99.90
4451;DHT22;2238;50.180;9.230;2022-07-22T16:32:13;28.60;99.90
4451;DHT22;2238;50.180;9.230;2022-07-22T16:35:13;28.50;99.90
4451;DHT22;2238;50.180;9.230;2022-07-22T16:38:15;28.50;99.90
4451;DHT22;2238;50.180;9.230;2022-07-22T16:41:16;28.50;99.90
4451;DHT22;2238;50.180;9.230;2022-07-22T16:47:17;28.40;99.90
4451;DHT22;2238;50.180;9.230;2022-07-22T16:50:18;28.40;99.90
4451;DHT22;2238;50.180;9.230;2022-07-22T16:53:19;28.30;99.90
4451;DHT22;2238;50.180;9.230;2022-07-22T16:56:19;28.40;99.90
4451;DHT22;2238;50.180;9.230;2022-07-22T16:59:20;28.40;99.90
4451;DHT22;2238;50.180;9.230;2022-07-22T17:02:21;28.40;99.90
4451;DHT22;2238;50.180;9.230;2022-07-22T17:05:21;28.40;99.90
4451;DHT22;2238;50.180;9.230;2022-07-22T17:08:22;28.30;99.90
4451;DHT22;2238;50.180;9.230;2022-07-22T17:11:23;28.40;99.90
4451;DHT22;2238;50.180;9.230;2022-07-22T17:14:23;28.40;99.90
4451;DHT22;2238;50.180;9.230;2022-07-22T17:17:24;28.30;99.90
4451;DHT22;2238;50.180;9.230;2022-07-22T17:20:24;28.20;99.90
4451;DHT22;2238;50.180;9.230;2022-07-22T17:23:25;28.30;99.90
4451;DHT22;2238;50.180;9.230;2022-07-22T17:26:26;28.10;99.90
4451;DHT22;2238;50.180;9.230;2022-07-22T17:29:27;28.10;99.90
4451;DHT22;2238;50.180;9.230;2022-07-22T17:32:27;28.10;99.90
4451;DHT22;2238;50.180;9.230;2022-07-22T17:35:28;28.10;99.90
4451;DHT22;2238;50.180;9.230;2022-07-22T17:38:28;28.10;99.90
4451;DHT22;2238;50.180;9.230;2022-07-22T17:41:29;28.10;99.90
4451;DHT22;2238;50.180;9.230;2022-07-22T17:44:29;28.10;99.90
4451;DHT22;2238;50.180;9.230;2022-07-22T17:47:30;28.00;99.90
4451;DHT22;2238;50.180;9.230;2022-07-22T17:50:32;27.60;99.90
4451;DHT22;2238;50.180;9.230;2022-07-22T17:53:39;27.50;99.90
4451;DHT22;2238;50.180;9.230;2022-07-22T17:56:39;27.10;99.90
4451;DHT22;2238;50.180;9.230;2022-07-22T17:59:40;27.70;99.90
4451;DHT22;2238;50.180;9.230;2022-07-22T18:02:41;27.20;99.90
4451;DHT22;2238;50.180;9.230;2022-07-22T18:05:44;27.20;99.90
4451;DHT22;2238;50.180;9.230;2022-07-22T18:08:45;26.70;99.90
4451;DHT22;2238;50.180;9.230;2022-07-22T18:11:45;26.60;99.90
4451;DHT22;2238;50.180;9.230;2022-07-22T18:14:46;26.60;99.90
4451;DHT22;2238;50.180;9.230;2022-07-22T18:17:47;26.60;99.90
4451;DHT22;2238;50.180;9.230;2022-07-22T18:20:47;26.60;99.90
4451;DHT22;2238;50.180;9.230;2022-07-22T18:23:48;26.60;99.90
4451;DHT22;2238;50.180;9.230;2022-07-22T18:26:48;26.50;99.90
4451;DHT22;2238;50.180;9.230;2022-07-22T18:29:49;26.30;99.90
4451;DHT22;2238;50.180;9.230;2022-07-22T18:32:50;26.20;99.90
4451;DHT22;2238;50.180;9.230;2022-07-22T18:35:50;26.30;99.90
4451;DHT22;2238;50.180;9.230;2022-07-22T18:38:51;26.10;99.90
4451;DHT22;2238;50.180;9.230;2022-07-22T18:41:51;26.10;99.90
4451;DHT22;2238;50.180;9.230;2022-07-22T18:44:52;26.10;99.90
4451;DHT22;2238;50.180;9.230;2022-07-22T18:47:52;25.60;99.90
4451;DHT22;2238;50.180;9.230;2022-07-22T18:50:54;25.40;99.90
4451;DHT22;2238;50.180;9.230;2022-07-22T18:53:55;25.30;99.90
4451;DHT22;2238;50.180;9.230;2022-07-22T18:56:55;25.20;99.90
4451;DHT22;2238;50.180;9.230;2022-07-22T18:59:57;25.10;99.90
4451;DHT22;2238;50.180;9.230;2022-07-22T19:02:58;25.00;99.90
4451;DHT22;2238;50.180;9.230;2022-07-22T19:05:59;25.00;99.90
4451;DHT22;2238;50.180;9.230;2022-07-22T19:09:00;25.00;99.90
4451;DHT22;2238;50.180;9.230;2022-07-22T19:12:00;24.90;99.90
4451;DHT22;2238;50.180;9.230;2022-07-22T19:15:05;24.90;99.90
4451;DHT22;2238;50.180;9.230;2022-07-22T19:18:06;24.90;99.90
4451;DHT22;2238;50.180;9.230;2022-07-22T19:21:07;25.00;99.90
4451;DHT22;2238;50.180;9.230;2022-07-22T19:24:07;24.50;99.90
4451;DHT22;2238;50.180;9.230;2022-07-22T19:27:08;24.20;99.90
4451;DHT22;2238;50.180;9.230;2022-07-22T19:30:09;24.20;99.90
4451;DHT22;2238;50.180;9.230;2022-07-22T19:33:10;24.00;99.90
4451;DHT22;2238;50.180;9.230;2022-07-22T19:36:11;24.10;99.90
4451;DHT22;2238;50.180;9.230;2022-07-22T19:42:14;24.20;99.90
4451;DHT22;2238;50.180;9.230;2022-07-22T19:48:15;23.80;99.90
4451;DHT22;2238;50.180;9.230;2022-07-22T19:51:16;23.70;99.90
4451;DHT22;2238;50.180;9.230;2022-07-22T19:54:17;23.80;99.90
4451;DHT22;2238;50.180;9.230;2022-07-22T19:57:17;23.80;99.90
4451;DHT22;2238;50.180;9.230;2022-07-22T20:00:18;23.90;99.90
4451;DHT22;2238;50.180;9.230;2022-07-22T20:03:20;23.90;99.90
4451;DHT22;2238;50.180;9.230;2022-07-22T20:12:22;23.90;99.90
4451;DHT22;2238;50.180;9.230;2022-07-22T20:15:23;23.90;99.90
4451;DHT22;2238;50.180;9.230;2022-07-22T20:18:24;23.80;99.90
4451;DHT22;2238;50.180;9.230;2022-07-22T20:24:26;23.80;99.90
4451;DHT22;2238;50.180;9.230;2022-07-22T20:27:26;23.70;99.90
4451;DHT22;2238;50.180;9.230;2022-07-22T20:33:28;24.00;99.90
4451;DHT22;2238;50.180;9.230;2022-07-22T20:36:29;24.50;99.90
4451;DHT22;2238;50.180;9.230;2022-07-22T20:39:30;24.10;99.90
4451;DHT22;2238;50.180;9.230;2022-07-22T20:45:31;24.20;99.90
4451;DHT22;2238;50.180;9.230;2022-07-22T20:51:33;24.30;99.90
4451;DHT22;2238;50.180;9.230;2022-07-22T20:57:34;24.30;99.90
4451;DHT22;2238;50.180;9.230;2022-07-22T21:00:35;24.30;99.90
4451;DHT22;2238;50.180;9.230;2022-07-22T21:03:36;24.40;99.90
4451;DHT22;2238;50.180;9.230;2022-07-22T21:06:36;24.40;99.90
4451;DHT22;2238;50.180;9.230;2022-07-22T21:09:37;24.40;99.90
4451;DHT22;2238;50.180;9.230;2022-07-22T21:12:37;24.50;99.90
4451;DHT22;2238;50.180;9.230;2022-07-22T21:15:38;24.60;99.90
4451;DHT22;2238;50.180;9.230;2022-07-22T21:18:39;24.60;99.90
4451;DHT22;2238;50.180;9.230;2022-07-22T21:21:39;24.10;99.90
4451;DHT22;2238;50.180;9.230;2022-07-22T21:24:40;24.00;99.90
4451;DHT22;2238;50.180;9.230;2022-07-22T21:27:40;23.90;99.90
4451;DHT22;2238;50.180;9.230;2022-07-22T21:30:41;23.90;99.90
4451;DHT22;2238;50.180;9.230;2022-07-22T21:33:41;23.80;99.90
4451;DHT22;2238;50.180;9.230;2022-07-22T21:36:42;23.70;99.90
4451;DHT22;2238;50.180;9.230;2022-07-22T21:42:43;23.70;99.90
4451;DHT22;2238;50.180;9.230;2022-07-22T21:45:44;23.60;99.90
4451;DHT22;2238;50.180;9.230;2022-07-22T21:51:52;23.50;99.90
4451;DHT22;2238;50.180;9.230;2022-07-22T21:57:53;23.40;99.90
4451;DHT22;2238;50.180;9.230;2022-07-22T22:03:55;23.30;99.90
4451;DHT22;2238;50.180;9.230;2022-07-22T22:06:55;23.30;99.90
4451;DHT22;2238;50.180;9.230;2022-07-22T22:12:57;23.30;99.90
4451;DHT22;2238;50.180;9.230;2022-07-22T22:18:59;23.10;99.90
4451;DHT22;2238;50.180;9.230;2022-07-22T22:22:00;23.00;99.90
4451;DHT22;2238;50.180;9.230;2022-07-22T22:25:01;23.00;99.90
4451;DHT22;2238;50.180;9.230;2022-07-22T22:28:05;23.00;99.90
4451;DHT22;2238;50.180;9.230;2022-07-22T22:31:06;22.90;99.90
4451;DHT22;2238;50.180;9.230;2022-07-22T22:43:10;22.50;99.90
4451;DHT22;2238;50.180;9.230;2022-07-22T22:46:10;22.40;99.90
4451;DHT22;2238;50.180;9.230;2022-07-22T22:49:11;22.60;99.90
4451;DHT22;2238;50.180;9.230;2022-07-22T22:52:12;22.60;99.90
4451;DHT22;2238;50.180;9.230;2022-07-22T23:04:16;22.30;99.90
4451;DHT22;2238;50.180;9.230;2022-07-22T23:10:17;22.40;99.90
4451;DHT22;2238;50.180;9.230;2022-07-22T23:22:21;22.30;99.90
4451;DHT22;2238;50.180;9.230;2022-07-22T23:25:22;22.50;99.90
4451;DHT22;2238;50.180;9.230;2022-07-22T23:28:24;22.60;99.90
4451;DHT22;2238;50.180;9.230;2022-07-22T23:31:24;22.30;99.90
4451;DHT22;2238;50.180;9.230;2022-07-22T23:34:25;22.40;99.90
4451;DHT22;2238;50.180;9.230;2022-07-22T23:37:26;22.80;99.90
4451;DHT22;2238;50.180;9.230;2022-07-22T23:43:31;22.00;99.90
4451;DHT22;2238;50.180;9.230;2022-07-22T23:49:33;22.10;99.90
